sensor_id;sensor_type;location;lat;lon;timestamp;pressure;altitude;pressure_sealevel;temperature;humidity
45040;BME280;30778;53.574;7.770;2023-03-15T00:00:42;100711.44;;;-0.79;55.47
45040;BME280;30778;53.574;7.770;2023-03-15T00:03:09;100716.31;;;-1.20;56.71
45040;BME280;30778;53.574;7.770;2023-03-15T00:05:35;100725.00;;;-1.03;56.17
45040;BME280;30778;53.574;7.770;2023-03-15T00:08:00;100720.72;;;-1.01;55.90
45040;BME280;30778;53.574;7.770;2023-03-15T00:10:27;100719.91;;;-0.92;55.68
45040;BME280;30778;53.574;7.770;2023-03-15T00:12:52;100723.16;;;-1.19;56.51
45040;BME280;30778;53.574;7.770;2023-03-15T00:15:18;100726.66;;;-1.08;55.91
45040;BME280;30778;53.574;7.770;2023-03-15T00:17:44;100729.88;;;-1.36;57.24
45040;BME280;30778;53.574;7.770;2023-03-15T00:20:10;100731.78;;;-1.08;56.42
45040;BME280;30778;53.574;7.770;2023-03-15T00:22:36;100748.84;;;-1.11;56.42
45040;BME280;30778;53.574;7.770;2023-03-15T00:25:02;100753.09;;;-1.13;56.48
45040;BME280;30778;53.574;7.770;2023-03-15T00:27:27;100751.44;;;-1.08;56.32
45040;BME280;30778;53.574;7.770;2023-03-15T00:29:53;100762.69;;;-0.91;55.90
45040;BME280;30778;53.574;7.770;2023-03-15T00:32:18;100769.56;;;-0.88;55.17
45040;BME280;30778;53.574;7.770;2023-03-15T00:34:44;100781.53;;;-0.87;54.98
45040;BME280;30778;53.574;7.770;2023-03-15T00:37:15;100784.03;;;-0.98;55.38
45040;BME280;30778;53.574;7.770;2023-03-15T00:39:42;100784.06;;;-0.95;55.08
45040;BME280;30778;53.574;7.770;2023-03-15T00:42:13;100790.00;;;-0.98;55.43
45040;BME280;30778;53.574;7.770;2023-03-15T00:44:44;100793.38;;;-1.05;55.66
45040;BME280;30778;53.574;7.770;2023-03-15T00:47:11;100794.22;;;-1.04;55.93
45040;BME280;30778;53.574;7.770;2023-03-15T00:49:38;100806.13;;;-1.12;56.29
45040;BME280;30778;53.574;7.770;2023-03-15T00:52:05;100807.09;;;-1.03;55.59
45040;BME280;30778;53.574;7.770;2023-03-15T00:54:31;100810.53;;;-1.01;55.66
45040;BME280;30778;53.574;7.770;2023-03-15T00:57:00;100812.22;;;-1.00;55.43
45040;BME280;30778;53.574;7.770;2023-03-15T00:59:31;100815.69;;;-0.96;55.43
45040;BME280;30778;53.574;7.770;2023-03-15T01:02:05;100813.94;;;-1.00;55.80
45040;BME280;30778;53.574;7.770;2023-03-15T01:04:30;100816.50;;;-1.02;55.83
45040;BME280;30778;53.574;7.770;2023-03-15T01:06:57;100820.69;;;-1.07;56.24
45040;BME280;30778;53.574;7.770;2023-03-15T01:09:22;100822.25;;;-1.30;57.03
45040;BME280;30778;53.574;7.770;2023-03-15T01:11:48;100840.50;;;-0.97;56.49
45040;BME280;30778;53.574;7.770;2023-03-15T01:14:14;100832.75;;;-1.00;56.30
45040;BME280;30778;53.574;7.770;2023-03-15T01:16:40;100838.91;;;-0.73;56.78
45040;BME280;30778;53.574;7.770;2023-03-15T01:19:08;100844.16;;;-0.58;56.42
45040;BME280;30778;53.574;7.770;2023-03-15T01:21:33;100851.03;;;-0.50;55.90
45040;BME280;30778;53.574;7.770;2023-03-15T01:23:59;100861.34;;;-0.43;55.65
45040;BME280;30778;53.574;7.770;2023-03-15T01:26:25;100866.56;;;-0.32;55.80
45040;BME280;30778;53.574;7.770;2023-03-15T01:28:50;100869.16;;;-0.26;55.66
45040;BME280;30778;53.574;7.770;2023-03-15T01:31:20;100864.03;;;-0.26;55.42
45040;BME280;30778;53.574;7.770;2023-03-15T01:33:47;100870.00;;;-0.27;55.12
45040;BME280;30778;53.574;7.770;2023-03-15T01:36:12;100873.38;;;-0.36;55.07
45040;BME280;30778;53.574;7.770;2023-03-15T01:38:39;100877.47;;;-0.65;55.65
45040;BME280;30778;53.574;7.770;2023-03-15T01:41:04;100880.84;;;-0.71;55.70
45040;BME280;30778;53.574;7.770;2023-03-15T01:43:31;100874.16;;;-0.47;55.19
45040;BME280;30778;53.574;7.770;2023-03-15T01:46:01;100870.69;;;-0.56;55.47
45040;BME280;30778;53.574;7.770;2023-03-15T01:50:56;100885.25;;;-0.53;54.83
45040;BME280;30778;53.574;7.770;2023-03-15T01:53:24;100883.56;;;-0.51;55.18
45040;BME280;30778;53.574;7.770;2023-03-15T01:55:52;100890.38;;;-0.56;55.37
45040;BME280;30778;53.574;7.770;2023-03-15T01:58:24;100889.53;;;-0.57;55.24
45040;BME280;30778;53.574;7.770;2023-03-15T02:00:51;100890.25;;;-0.76;55.59
45040;BME280;30778;53.574;7.770;2023-03-15T02:03:22;100894.44;;;-0.84;55.50
45040;BME280;30778;53.574;7.770;2023-03-15T02:05:53;100897.81;;;-0.91;55.71
45040;BME280;30778;53.574;7.770;2023-03-15T02:08:38;100907.22;;;-0.92;55.41
45040;BME280;30778;53.574;7.770;2023-03-15T02:11:06;100925.16;;;-0.97;55.66
45040;BME280;30778;53.574;7.770;2023-03-15T02:13:33;100931.19;;;-0.91;55.69
45040;BME280;30778;53.574;7.770;2023-03-15T02:16:05;100940.69;;;-0.81;55.47
45040;BME280;30778;53.574;7.770;2023-03-15T02:18:37;100939.00;;;-0.76;55.87
45040;BME280;30778;53.574;7.770;2023-03-15T02:21:41;100940.81;;;-0.60;56.00
45040;BME280;30778;53.574;7.770;2023-03-15T02:24:15;100952.00;;;-0.56;55.57
45040;BME280;30778;53.574;7.770;2023-03-15T02:26:47;100950.34;;;-0.45;55.63
45040;BME280;30778;53.574;7.770;2023-03-15T02:29:14;100953.69;;;-0.58;55.62
45040;BME280;30778;53.574;7.770;2023-03-15T02:31:40;100947.59;;;-0.71;55.46
45040;BME280;30778;53.574;7.770;2023-03-15T02:34:06;100946.03;;;-0.52;55.24
45040;BME280;30778;53.574;7.770;2023-03-15T02:36:34;100936.63;;;-0.50;55.26
45040;BME280;30778;53.574;7.770;2023-03-15T02:39:00;100942.63;;;-0.46;54.81
45040;BME280;30778;53.574;7.770;2023-03-15T02:41:35;100946.00;;;-0.57;54.57
45040;BME280;30778;53.574;7.770;2023-03-15T02:44:06;100953.59;;;-0.72;55.05
45040;BME280;30778;53.574;7.770;2023-03-15T02:46:33;100963.88;;;-0.70;54.56
45040;BME280;30778;53.574;7.770;2023-03-15T02:49:00;100962.75;;;-1.00;55.79
45040;BME280;30778;53.574;7.770;2023-03-15T02:51:28;100961.94;;;-0.96;55.06
45040;BME280;30778;53.574;7.770;2023-03-15T02:53:55;100967.94;;;-0.94;54.95
45040;BME280;30778;53.574;7.770;2023-03-15T02:56:21;100971.28;;;-1.03;55.22
45040;BME280;30778;53.574;7.770;2023-03-15T02:58:47;100969.41;;;-1.13;56.08
45040;BME280;30778;53.574;7.770;2023-03-15T03:01:14;100978.13;;;-1.03;55.58
45040;BME280;30778;53.574;7.770;2023-03-15T03:03:40;100989.22;;;-1.04;55.57
45040;BME280;30778;53.574;7.770;2023-03-15T03:06:06;100978.81;;;-1.13;55.71
45040;BME280;30778;53.574;7.770;2023-03-15T03:08:34;100981.34;;;-1.18;55.83
45040;BME280;30778;53.574;7.770;2023-03-15T03:11:00;100984.84;;;-1.10;55.74
45040;BME280;30778;53.574;7.770;2023-03-15T03:13:26;100995.13;;;-1.07;55.41
45040;BME280;30778;53.574;7.770;2023-03-15T03:15:52;100995.97;;;-1.09;55.63
45040;BME280;30778;53.574;7.770;2023-03-15T03:18:30;101011.16;;;-1.28;56.23
45040;BME280;30778;53.574;7.770;2023-03-15T03:21:04;101022.31;;;-1.26;56.06
45040;BME280;30778;53.574;7.770;2023-03-15T03:23:31;101017.97;;;-1.31;56.33
45040;BME280;30778;53.574;7.770;2023-03-15T03:25:58;101032.56;;;-1.24;55.83
45040;BME280;30778;53.574;7.770;2023-03-15T03:28:26;101024.03;;;-1.26;55.93
45040;BME280;30778;53.574;7.770;2023-03-15T03:30:53;101035.91;;;-1.31;55.60
45040;BME280;30778;53.574;7.770;2023-03-15T03:33:19;101032.44;;;-1.36;55.22
45040;BME280;30778;53.574;7.770;2023-03-15T03:35:46;101039.25;;;-1.39;55.41
45040;BME280;30778;53.574;7.770;2023-03-15T03:38:13;101044.16;;;-1.57;55.64
45040;BME280;30778;53.574;7.770;2023-03-15T03:40:42;101044.19;;;-1.54;55.27
45040;BME280;30778;53.574;7.770;2023-03-15T03:43:08;101050.16;;;-1.53;55.48
45040;BME280;30778;53.574;7.770;2023-03-15T03:45:34;101054.50;;;-1.51;55.84
45040;BME280;30778;53.574;7.770;2023-03-15T03:48:00;101056.94;;;-1.59;56.10
45040;BME280;30778;53.574;7.770;2023-03-15T03:50:27;101065.44;;;-1.63;56.30
45040;BME280;30778;53.574;7.770;2023-03-15T03:52:53;101069.72;;;-1.62;55.95
45040;BME280;30778;53.574;7.770;2023-03-15T03:55:25;101078.09;;;-1.73;56.22
45040;BME280;30778;53.574;7.770;2023-03-15T03:57:52;101083.41;;;-1.61;56.03
45040;BME280;30778;53.574;7.770;2023-03-15T04:00:34;101090.19;;;-1.63;56.05
45040;BME280;30778;53.574;7.770;2023-03-15T04:03:00;101095.38;;;-1.60;55.97
45040;BME280;30778;53.574;7.770;2023-03-15T04:05:27;101093.69;;;-1.58;55.81
45040;BME280;30778;53.574;7.770;2023-03-15T04:07:53;101097.03;;;-1.62;55.79
45040;BME280;30778;53.574;7.770;2023-03-15T04:10:18;101093.44;;;-1.76;56.75
45040;BME280;30778;53.574;7.770;2023-03-15T04:12:55;101095.38;;;-1.62;56.46
45040;BME280;30778;53.574;7.770;2023-03-15T04:15:23;101101.81;;;-1.87;57.36
45040;BME280;30778;53.574;7.770;2023-03-15T04:17:49;101098.88;;;-1.55;56.25
45040;BME280;30778;53.574;7.770;2023-03-15T04:20:23;101110.56;;;-1.75;56.83
45040;BME280;30778;53.574;7.770;2023-03-15T04:22:49;101117.50;;;-1.65;56.67
45040;BME280;30778;53.574;7.770;2023-03-15T04:25:51;101109.94;;;-1.57;56.15
45040;BME280;30778;53.574;7.770;2023-03-15T04:28:53;101116.03;;;-1.51;56.08
45040;BME280;30778;53.574;7.770;2023-03-15T04:31:34;101118.50;;;-1.57;55.99
45040;BME280;30778;53.574;7.770;2023-03-15T04:34:20;101121.16;;;-1.51;56.04
45040;BME280;30778;53.574;7.770;2023-03-15T04:36:58;101127.97;;;-1.53;55.85
45040;BME280;30778;53.574;7.770;2023-03-15T04:39:58;101132.19;;;-1.55;56.10
45040;BME280;30778;53.574;7.770;2023-03-15T04:42:38;101139.06;;;-1.52;55.84
45040;BME280;30778;53.574;7.770;2023-03-15T04:45:27;101144.09;;;-1.59;56.28
45040;BME280;30778;53.574;7.770;2023-03-15T04:47:56;101150.19;;;-1.52;56.06
45040;BME280;30778;53.574;7.770;2023-03-15T04:50:42;101139.81;;;-1.58;56.38
45040;BME280;30778;53.574;7.770;2023-03-15T04:53:19;101149.41;;;-1.46;55.91
45040;BME280;30778;53.574;7.770;2023-03-15T04:56:05;101158.75;;;-1.50;55.88
45040;BME280;30778;53.574;7.770;2023-03-15T04:58:39;101155.28;;;-1.55;56.17
45040;BME280;30778;53.574;7.770;2023-03-15T05:01:27;101157.09;;;-1.45;55.97
45040;BME280;30778;53.574;7.770;2023-03-15T05:04:20;101165.69;;;-1.43;55.21
45040;BME280;30778;53.574;7.770;2023-03-15T05:07:12;101171.50;;;-1.54;55.75
45040;BME280;30778;53.574;7.770;2023-03-15T05:10:07;101170.06;;;-1.37;54.88
45040;BME280;30778;53.574;7.770;2023-03-15T05:12:38;101169.16;;;-1.38;54.78
45040;BME280;30778;53.574;7.770;2023-03-15T05:15:30;101176.78;;;-1.42;54.58
45040;BME280;30778;53.574;7.770;2023-03-15T05:18:16;101165.59;;;-1.49;54.62
45040;BME280;30778;53.574;7.770;2023-03-15T05:21:03;101162.31;;;-1.42;54.17
45040;BME280;30778;53.574;7.770;2023-03-15T05:23:56;101170.69;;;-1.52;54.44
45040;BME280;30778;53.574;7.770;2023-03-15T05:26:48;101182.63;;;-1.54;54.36
45040;BME280;30778;53.574;7.770;2023-03-15T05:29:30;101182.59;;;-1.55;54.22
45040;BME280;30778;53.574;7.770;2023-03-15T05:32:16;101186.75;;;-1.62;54.60
45040;BME280;30778;53.574;7.770;2023-03-15T05:35:00;101181.72;;;-1.57;54.58
45040;BME280;30778;53.574;7.770;2023-03-15T05:37:58;101189.31;;;-1.62;53.87
45040;BME280;30778;53.574;7.770;2023-03-15T05:40:46;101188.34;;;-1.69;54.05
45040;BME280;30778;53.574;7.770;2023-03-15T05:43:31;101188.34;;;-1.70;53.95
45040;BME280;30778;53.574;7.770;2023-03-15T05:46:12;101201.59;;;-1.96;54.47
45040;BME280;30778;53.574;7.770;2023-03-15T05:48:57;101199.91;;;-1.94;54.37
45040;BME280;30778;53.574;7.770;2023-03-15T05:51:40;101199.28;;;-1.81;54.26
45040;BME280;30778;53.574;7.770;2023-03-15T05:54:26;101209.19;;;-2.02;54.79
45040;BME280;30778;53.574;7.770;2023-03-15T05:57:10;101216.91;;;-1.99;54.76
45040;BME280;30778;53.574;7.770;2023-03-15T05:59:54;101218.75;;;-1.92;54.22
45040;BME280;30778;53.574;7.770;2023-03-15T06:02:41;101221.66;;;-1.70;54.24
45040;BME280;30778;53.574;7.770;2023-03-15T06:05:20;101220.97;;;-2.10;54.38
45040;BME280;30778;53.574;7.770;2023-03-15T06:07:46;101227.50;;;-1.79;53.85
45040;BME280;30778;53.574;7.770;2023-03-15T06:10:13;101238.91;;;-1.60;53.82
45040;BME280;30778;53.574;7.770;2023-03-15T06:12:39;101245.78;;;-1.59;54.01
45040;BME280;30778;53.574;7.770;2023-03-15T06:15:05;101259.09;;;-1.27;52.97
45040;BME280;30778;53.574;7.770;2023-03-15T06:17:32;101258.63;;;-1.03;52.48
45040;BME280;30778;53.574;7.770;2023-03-15T06:19:58;101255.56;;;-0.77;51.56
45040;BME280;30778;53.574;7.770;2023-03-15T06:22:24;101246.66;;;-1.04;51.36
45040;BME280;30778;53.574;7.770;2023-03-15T06:24:56;101265.22;;;-0.59;50.79
45040;BME280;30778;53.574;7.770;2023-03-15T06:27:22;101265.25;;;-0.53;50.46
45040;BME280;30778;53.574;7.770;2023-03-15T06:29:50;101277.69;;;-0.15;50.17
45040;BME280;30778;53.574;7.770;2023-03-15T06:32:18;101281.88;;;-0.25;49.48
45040;BME280;30778;53.574;7.770;2023-03-15T06:34:44;101277.22;;;-0.57;50.16
45040;BME280;30778;53.574;7.770;2023-03-15T06:37:12;101284.16;;;-0.46;50.13
45040;BME280;30778;53.574;7.770;2023-03-15T06:39:38;101294.56;;;-0.37;50.25
45040;BME280;30778;53.574;7.770;2023-03-15T06:42:05;101290.75;;;-0.70;51.40
45040;BME280;30778;53.574;7.770;2023-03-15T06:44:36;101295.84;;;-0.71;50.84
45040;BME280;30778;53.574;7.770;2023-03-15T06:47:05;101308.97;;;-0.48;50.81
45040;BME280;30778;53.574;7.770;2023-03-15T06:49:31;101301.41;;;-1.00;51.38
45040;BME280;30778;53.574;7.770;2023-03-15T06:51:58;101307.69;;;-0.80;50.60
45040;BME280;30778;53.574;7.770;2023-03-15T06:54:24;101317.59;;;-1.04;50.87
45040;BME280;30778;53.574;7.770;2023-03-15T06:56:49;101319.84;;;-0.69;50.57
45040;BME280;30778;53.574;7.770;2023-03-15T06:59:16;101322.38;;;-0.71;50.36
45040;BME280;30778;53.574;7.770;2023-03-15T07:01:41;101329.19;;;0.84;49.75
45040;BME280;30778;53.574;7.770;2023-03-15T07:04:07;101324.66;;;3.59;42.05
45040;BME280;30778;53.574;7.770;2023-03-15T07:06:34;101322.09;;;5.73;38.36
45040;BME280;30778;53.574;7.770;2023-03-15T07:09:00;101319.28;;;5.88;34.72
45040;BME280;30778;53.574;7.770;2023-03-15T07:11:26;101330.56;;;3.88;38.28
45040;BME280;30778;53.574;7.770;2023-03-15T07:13:52;101336.81;;;2.44;41.64
45040;BME280;30778;53.574;7.770;2023-03-15T07:16:17;101338.47;;;2.11;43.48
45040;BME280;30778;53.574;7.770;2023-03-15T07:18:42;101336.56;;;1.61;44.47
45040;BME280;30778;53.574;7.770;2023-03-15T07:21:08;101337.63;;;3.46;43.86
45040;BME280;30778;53.574;7.770;2023-03-15T07:23:33;101328.38;;;6.77;39.01
45040;BME280;30778;53.574;7.770;2023-03-15T07:25:59;101334.72;;;8.38;33.16
45040;BME280;30778;53.574;7.770;2023-03-15T07:28:25;101329.94;;;9.88;33.57
45040;BME280;30778;53.574;7.770;2023-03-15T07:30:59;101330.78;;;11.96;29.93
45040;BME280;30778;53.574;7.770;2023-03-15T07:33:27;101328.25;;;11.22;28.04
45040;BME280;30778;53.574;7.770;2023-03-15T07:35:53;101333.31;;;11.27;27.60
45040;BME280;30778;53.574;7.770;2023-03-15T07:38:21;101346.16;;;12.05;28.10
45040;BME280;30778;53.574;7.770;2023-03-15T07:40:48;101340.31;;;13.26;25.79
45040;BME280;30778;53.574;7.770;2023-03-15T07:43:13;101343.66;;;13.29;26.02
45040;BME280;30778;53.574;7.770;2023-03-15T07:45:40;101350.75;;;12.64;25.49
45040;BME280;30778;53.574;7.770;2023-03-15T07:48:06;101357.72;;;12.65;24.90
45040;BME280;30778;53.574;7.770;2023-03-15T07:50:31;101356.00;;;13.67;25.83
45040;BME280;30778;53.574;7.770;2023-03-15T07:52:57;101358.44;;;13.71;23.79
45040;BME280;30778;53.574;7.770;2023-03-15T07:55:23;101372.59;;;11.25;26.93
45040;BME280;30778;53.574;7.770;2023-03-15T07:57:50;101380.22;;;12.05;26.36
45040;BME280;30778;53.574;7.770;2023-03-15T08:00:16;101395.50;;;10.93;28.24
45040;BME280;30778;53.574;7.770;2023-03-15T08:02:42;101393.72;;;9.78;29.94
45040;BME280;30778;53.574;7.770;2023-03-15T08:05:08;101403.88;;;8.90;31.95
45040;BME280;30778;53.574;7.770;2023-03-15T08:07:34;101410.41;;;9.07;31.89
45040;BME280;30778;53.574;7.770;2023-03-15T08:10:02;101415.97;;;9.60;29.55
45040;BME280;30778;53.574;7.770;2023-03-15T08:12:27;101422.56;;;7.43;32.03
45040;BME280;30778;53.574;7.770;2023-03-15T08:14:54;101432.84;;;5.66;35.59
45040;BME280;30778;53.574;7.770;2023-03-15T08:17:19;101439.34;;;5.14;37.61
45040;BME280;30778;53.574;7.770;2023-03-15T08:19:45;101457.78;;;4.70;38.87
45040;BME280;30778;53.574;7.770;2023-03-15T08:22:10;101464.25;;;3.35;42.94
45040;BME280;30778;53.574;7.770;2023-03-15T08:24:36;101469.38;;;3.13;44.40
45040;BME280;30778;53.574;7.770;2023-03-15T08:27:02;101483.81;;;2.27;46.73
45040;BME280;30778;53.574;7.770;2023-03-15T08:29:29;101492.88;;;1.59;48.30
45040;BME280;30778;53.574;7.770;2023-03-15T08:31:55;101489.38;;;0.62;50.20
45040;BME280;30778;53.574;7.770;2023-03-15T08:34:21;101505.34;;;0.36;51.43
45040;BME280;30778;53.574;7.770;2023-03-15T08:36:47;101519.16;;;-0.20;52.54
45040;BME280;30778;53.574;7.770;2023-03-15T08:39:13;101529.41;;;-0.73;54.48
45040;BME280;30778;53.574;7.770;2023-03-15T08:41:38;101540.13;;;-1.40;56.46
45040;BME280;30778;53.574;7.770;2023-03-15T08:44:05;101546.84;;;-1.04;55.83
45040;BME280;30778;53.574;7.770;2023-03-15T08:46:31;101568.09;;;-1.50;56.78
45040;BME280;30778;53.574;7.770;2023-03-15T08:48:58;101580.66;;;-1.63;56.93
45040;BME280;30778;53.574;7.770;2023-03-15T08:51:24;101600.72;;;-1.83;58.15
45040;BME280;30778;53.574;7.770;2023-03-15T08:53:52;101598.84;;;-1.52;57.04
45040;BME280;30778;53.574;7.770;2023-03-15T08:56:18;101591.44;;;-2.49;59.61
45040;BME280;30778;53.574;7.770;2023-03-15T08:58:43;101584.19;;;-1.57;57.19
45040;BME280;30778;53.574;7.770;2023-03-15T09:01:12;101575.38;;;-1.29;56.26
45040;BME280;30778;53.574;7.770;2023-03-15T09:03:38;101576.91;;;-0.97;55.28
45040;BME280;30778;53.574;7.770;2023-03-15T09:06:04;101585.44;;;-0.98;55.33
45040;BME280;30778;53.574;7.770;2023-03-15T09:08:30;101585.63;;;-0.88;55.31
45040;BME280;30778;53.574;7.770;2023-03-15T09:10:58;101592.78;;;-1.14;55.84
45040;BME280;30778;53.574;7.770;2023-03-15T09:13:24;101595.41;;;-0.67;54.66
45040;BME280;30778;53.574;7.770;2023-03-15T09:15:51;101595.84;;;-0.90;54.84
45040;BME280;30778;53.574;7.770;2023-03-15T09:18:17;101593.31;;;-0.40;53.89
45040;BME280;30778;53.574;7.770;2023-03-15T09:20:43;101588.66;;;-0.10;53.70
45040;BME280;30778;53.574;7.770;2023-03-15T09:23:08;101575.66;;;-0.20;53.58
45040;BME280;30778;53.574;7.770;2023-03-15T09:25:34;101569.81;;;-0.11;53.15
45040;BME280;30778;53.574;7.770;2023-03-15T09:28:05;101556.25;;;-0.02;53.00
45040;BME280;30778;53.574;7.770;2023-03-15T09:30:32;101533.25;;;0.05;52.33
45040;BME280;30778;53.574;7.770;2023-03-15T09:32:57;101522.00;;;-0.01;52.94
45040;BME280;30778;53.574;7.770;2023-03-15T09:35:23;101529.97;;;0.19;52.98
45040;BME280;30778;53.574;7.770;2023-03-15T09:37:48;101554.75;;;0.14;53.27
45040;BME280;30778;53.574;7.770;2023-03-15T09:40:27;101565.19;;;0.24;52.33
45040;BME280;30778;53.574;7.770;2023-03-15T09:43:37;101554.88;;;0.21;52.14
45040;BME280;30778;53.574;7.770;2023-03-15T09:45:52;101556.63;;;0.25;51.85
45040;BME280;30778;53.574;7.770;2023-03-15T09:53:58;101563.25;;;1.55;51.97
45040;BME280;30778;53.574;7.770;2023-03-15T09:56:34;101563.84;;;2.41;49.96
45040;BME280;30778;53.574;7.770;2023-03-15T09:59:01;101588.81;;;2.48;47.98
45040;BME280;30778;53.574;7.770;2023-03-15T10:01:35;101618.91;;;2.43;47.46
45040;BME280;30778;53.574;7.770;2023-03-15T10:04:29;101637.16;;;0.84;50.02
45040;BME280;30778;53.574;7.770;2023-03-15T10:06:57;101646.00;;;-0.15;52.23
45040;BME280;30778;53.574;7.770;2023-03-15T10:09:28;101657.97;;;-0.15;52.44
45040;BME280;30778;53.574;7.770;2023-03-15T10:12:08;101652.13;;;-0.55;53.28
45040;BME280;30778;53.574;7.770;2023-03-15T10:15:15;101654.56;;;-0.63;54.99
45040;BME280;30778;53.574;7.770;2023-03-15T10:20:31;101648.41;;;-0.71;54.99
45040;BME280;30778;53.574;7.770;2023-03-15T10:25:37;101636.94;;;-0.43;54.14
45040;BME280;30778;53.574;7.770;2023-03-15T10:30:37;101600.53;;;-0.19;54.06
45040;BME280;30778;53.574;7.770;2023-03-15T10:35:47;101611.50;;;0.26;52.21
45040;BME280;30778;53.574;7.770;2023-03-15T10:38:18;101614.38;;;0.46;53.00
45040;BME280;30778;53.574;7.770;2023-03-15T10:40:56;101606.38;;;0.95;52.62
45040;BME280;30778;53.574;7.770;2023-03-15T10:43:26;101619.63;;;1.27;51.96
45040;BME280;30778;53.574;7.770;2023-03-15T10:46:01;101618.81;;;1.32;51.09
45040;BME280;30778;53.574;7.770;2023-03-15T10:48:28;101621.72;;;1.60;51.49
45040;BME280;30778;53.574;7.770;2023-03-15T10:50:55;101621.41;;;2.30;51.58
45040;BME280;30778;53.574;7.770;2023-03-15T10:53:21;101626.19;;;3.39;49.74
45040;BME280;30778;53.574;7.770;2023-03-15T10:55:58;101632.25;;;4.36;46.91
45040;BME280;30778;53.574;7.770;2023-03-15T10:58:46;101623.50;;;4.71;44.20
45040;BME280;30778;53.574;7.770;2023-03-15T11:01:22;101632.03;;;5.07;45.11
45040;BME280;30778;53.574;7.770;2023-03-15T11:06:38;101634.44;;;5.44;40.58
45040;BME280;30778;53.574;7.770;2023-03-15T11:09:16;101640.19;;;5.86;42.21
45040;BME280;30778;53.574;7.770;2023-03-15T11:12:03;101644.50;;;5.84;41.95
45040;BME280;30778;53.574;7.770;2023-03-15T11:16:58;101648.25;;;5.43;39.53
45040;BME280;30778;53.574;7.770;2023-03-15T11:19:29;101649.06;;;5.50;40.35
45040;BME280;30778;53.574;7.770;2023-03-15T11:21:57;101658.19;;;6.04;41.15
45040;BME280;30778;53.574;7.770;2023-03-15T11:24:26;101649.47;;;6.12;39.12
45040;BME280;30778;53.574;7.770;2023-03-15T11:26:54;101661.75;;;5.91;37.85
45040;BME280;30778;53.574;7.770;2023-03-15T11:29:26;101659.88;;;6.05;41.05
45040;BME280;30778;53.574;7.770;2023-03-15T11:31:54;101661.47;;;6.25;38.44
45040;BME280;30778;53.574;7.770;2023-03-15T11:34:36;101671.38;;;6.74;39.32
45040;BME280;30778;53.574;7.770;2023-03-15T11:37:11;101670.34;;;6.87;39.52
45040;BME280;30778;53.574;7.770;2023-03-15T11:39:45;101663.88;;;7.21;38.70
45040;BME280;30778;53.574;7.770;2023-03-15T11:42:19;101667.47;;;6.32;38.69
45040;BME280;30778;53.574;7.770;2023-03-15T11:44:48;101662.50;;;6.92;39.37
45040;BME280;30778;53.574;7.770;2023-03-15T11:47:49;101658.66;;;7.22;39.32
45040;BME280;30778;53.574;7.770;2023-03-15T11:50:17;101663.34;;;6.93;40.34
45040;BME280;30778;53.574;7.770;2023-03-15T11:52:47;101656.72;;;5.68;39.55
45040;BME280;30778;53.574;7.770;2023-03-15T11:55:24;101663.34;;;6.06;41.48
45040;BME280;30778;53.574;7.770;2023-03-15T11:57:50;101654.91;;;6.75;40.32
45040;BME280;30778;53.574;7.770;2023-03-15T12:03:31;101651.44;;;7.41;39.93
45040;BME280;30778;53.574;7.770;2023-03-15T12:08:49;101653.13;;;7.47;39.19
45040;BME280;30778;53.574;7.770;2023-03-15T12:19:57;101655.53;;;7.61;36.29
45040;BME280;30778;53.574;7.770;2023-03-15T12:22:29;101660.38;;;7.23;37.66
45040;BME280;30778;53.574;7.770;2023-03-15T12:24:58;101658.34;;;6.77;40.52
45040;BME280;30778;53.574;7.770;2023-03-15T12:27:28;101658.94;;;7.64;39.29
45040;BME280;30778;53.574;7.770;2023-03-15T12:30:00;101659.69;;;6.33;39.03
45040;BME280;30778;53.574;7.770;2023-03-15T12:32:28;101654.63;;;7.63;38.43
45040;BME280;30778;53.574;7.770;2023-03-15T12:35:07;101665.78;;;7.71;37.90
45040;BME280;30778;53.574;7.770;2023-03-15T12:37:41;101668.44;;;6.17;39.55
45040;BME280;30778;53.574;7.770;2023-03-15T12:47:49;101666.00;;;5.97;38.93
45040;BME280;30778;53.574;7.770;2023-03-15T12:58:57;101670.53;;;5.72;40.32
45040;BME280;30778;53.574;7.770;2023-03-15T13:01:26;101667.88;;;6.75;39.50
45040;BME280;30778;53.574;7.770;2023-03-15T13:03:56;101664.44;;;8.00;37.83
45040;BME280;30778;53.574;7.770;2023-03-15T13:14:31;101657.91;;;6.38;33.72
45040;BME280;30778;53.574;7.770;2023-03-15T13:19:45;101657.44;;;7.48;30.13
45040;BME280;30778;53.574;7.770;2023-03-15T13:26:00;101666.44;;;7.86;29.84
45040;BME280;30778;53.574;7.770;2023-03-15T13:28:36;101669.06;;;9.24;27.83
45040;BME280;30778;53.574;7.770;2023-03-15T13:33:46;101675.56;;;9.05;28.55
45040;BME280;30778;53.574;7.770;2023-03-15T13:36:17;101670.28;;;8.63;28.76
45040;BME280;30778;53.574;7.770;2023-03-15T13:38:48;101667.28;;;9.26;28.92
45040;BME280;30778;53.574;7.770;2023-03-15T13:43:42;101672.59;;;7.18;30.71
45040;BME280;30778;53.574;7.770;2023-03-15T13:46:08;101679.38;;;6.53;32.31
45040;BME280;30778;53.574;7.770;2023-03-15T13:48:35;101672.63;;;6.36;32.36
45040;BME280;30778;53.574;7.770;2023-03-15T13:51:04;101681.13;;;6.55;32.58
45040;BME280;30778;53.574;7.770;2023-03-15T13:53:33;101676.31;;;7.62;31.12
45040;BME280;30778;53.574;7.770;2023-03-15T13:56:00;101676.00;;;7.82;31.39
45040;BME280;30778;53.574;7.770;2023-03-15T13:58:26;101674.50;;;9.15;29.72
45040;BME280;30778;53.574;7.770;2023-03-15T14:00:58;101683.91;;;9.22;29.58
45040;BME280;30778;53.574;7.770;2023-03-15T14:03:24;101682.31;;;9.55;27.24
45040;BME280;30778;53.574;7.770;2023-03-15T14:05:52;101687.81;;;8.54;28.55
45040;BME280;30778;53.574;7.770;2023-03-15T14:08:31;101680.44;;;8.78;27.32
45040;BME280;30778;53.574;7.770;2023-03-15T14:11:08;101690.53;;;7.97;29.40
45040;BME280;30778;53.574;7.770;2023-03-15T14:16:31;101697.97;;;6.06;32.64
45040;BME280;30778;53.574;7.770;2023-03-15T14:21:41;101704.41;;;6.63;33.42
45040;BME280;30778;53.574;7.770;2023-03-15T14:24:36;101699.69;;;7.67;32.22
45040;BME280;30778;53.574;7.770;2023-03-15T14:27:18;101705.59;;;8.31;31.19
45040;BME280;30778;53.574;7.770;2023-03-15T14:29:53;101704.81;;;8.77;30.07
45040;BME280;30778;53.574;7.770;2023-03-15T14:37:35;101704.47;;;7.96;28.39